Glens Falls, NY

05:02 EDT le 31 octobre 2014 (GMT -0400)
Schenectady County | Change Station
CLOSE
Current Station
Aéroport
Location: Schenectady,
Altitude: 377 ft
Stations météo à proximité

Alt. 377 ft 42.85 °N, 73.93 °W | Updated 9 hours ago

Ciel dégagé
Ciel dégagé
37 ° F
Paraît 37 ° F
N
0
Vent Variable Vent de Ouest
Gusts 0 mph

Aujourd'hui
Haut(e) -- | Bas -- ° F
--% Risque de précip.
Hier
Haut(e) -- | Bas -- ° F
Precip. -- pouce
7:28 AM 5:47 PM
Premier quartier, 53% visible
Pression 30.03 pouce
Visibilité 10.0 Miles terrestres
Nuages Ciel dégagé
Point de rosée 30 ° F
Humidité 72%
Précipitations 0.00 pouce
Profondeur de la couche neigeuse Non disponible.
UV 0 sur 12
Pollen .60 sur 12
Qualité de l'air Non disponible.
Flu Activity Non disponible.
METAR KSCH 302350Z 29006KT 10SM CLR 07/00 A3003

More Conditions Fewer Conditions

Pression 30.03 pouce
Visibilité 10.0 Miles terrestres
Nuages Ciel dégagé
Point de rosée 30 ° F
Humidité 72%
Précipitations 0.00 pouce
Profondeur de la couche neigeuse Non disponible.
UV 0 sur 12
Pollen .60 sur 12
Qualité de l'air Non disponible.
Flu Activity Non disponible.
METAR KSCH 302350Z 29006KT 10SM CLR 07/00 A3003

More Conditions Fewer Conditions

10-Day Weather Forecast

Almanac

Astronomie

Oct. 31, 2014 Lever Coucher
Temps réel
Crépuscule civil
Crépuscule nautique
Crépuscule astronomique
Lune
Durée de lumière visible
Longueur du jour
Tomorrow will be .
, % of the Moon is Illuminated

Extrêmes aujourd'hui

State Highs State Lows

Community

WunderPhotos

Upload Photos

1,766,573 Photos téléchargées !

WunderBlogs® & News

Nearby

Qualité de l'air

  Qualité de l'air Indice de la qualité de l'air Polluant
Not available.

Épaisseur de neige

Station Depth Altitude

Activité sismique

Ville Distance Mag. Time & Date
Minimum magnitude displayed is 2.5.

Températures des eaux côtières

Lieu Température

Stations météo à proximité